createdAt,value
2023-05-12T00:00:04.369Z,1017.52
2023-05-12T00:05:05.053Z,1017.57
2023-05-12T00:10:04.303Z,1017.59
2023-05-12T00:15:03.139Z,1017.6
2023-05-12T00:20:05.452Z,1017.62
2023-05-12T00:25:03.138Z,1017.61
2023-05-12T00:30:04.766Z,1017.56
2023-05-12T00:35:04.761Z,1017.82
2023-05-12T00:40:04.870Z,1017.8
2023-05-12T00:45:03.174Z,1017.73
2023-05-12T00:50:04.217Z,1017.73
2023-05-12T00:55:03.180Z,1017.58
2023-05-12T01:00:04.033Z,1017.62
2023-05-12T01:05:03.269Z,1017.55
2023-05-12T01:10:04.379Z,1017.58
2023-05-12T01:15:03.239Z,1017.56
2023-05-12T01:20:04.489Z,1017.55
2023-05-12T01:25:03.264Z,1017.49
2023-05-12T01:30:04.227Z,1017.47
2023-05-12T01:35:03.207Z,1017.37
2023-05-12T01:40:04.821Z,1017.48
2023-05-12T01:45:03.092Z,1017.6
2023-05-12T01:50:04.258Z,1017.54
2023-05-12T01:55:03.092Z,1017.5
2023-05-12T02:00:04.193Z,1017.58
2023-05-12T02:05:03.136Z,1017.53
2023-05-12T02:10:04.176Z,1017.47
2023-05-12T02:15:03.158Z,1017.48
2023-05-12T02:20:04.260Z,1017.52
2023-05-12T02:25:03.151Z,1017.45
2023-05-12T02:30:04.261Z,1017.47
2023-05-12T02:35:03.810Z,1017.51
2023-05-12T02:40:04.300Z,1017.56
2023-05-12T02:45:03.087Z,1017.49
2023-05-12T02:50:04.193Z,1017.36
2023-05-12T02:55:03.111Z,1017.34
2023-05-12T03:00:04.402Z,1017.28
2023-05-12T03:05:03.209Z,1017.28
2023-05-12T03:10:04.645Z,1017.33
2023-05-12T03:15:03.255Z,1017.32
2023-05-12T03:20:04.285Z,1017.23
2023-05-12T03:25:03.192Z,1017.28
2023-05-12T03:30:04.248Z,1017.28
2023-05-12T03:35:03.488Z,1017.36
2023-05-12T03:40:04.382Z,1017.34
2023-05-12T03:45:03.088Z,1017.26
2023-05-12T03:50:05.271Z,1017.12
2023-05-12T03:55:03.080Z,1017.03
2023-05-12T04:00:04.205Z,1016.94
2023-05-12T04:05:03.141Z,1016.9
2023-05-12T04:10:04.602Z,1017.02
2023-05-12T04:15:03.088Z,1017.0
2023-05-12T04:20:04.266Z,1016.96
2023-05-12T04:25:03.118Z,1016.91
2023-05-12T04:30:04.166Z,1016.85
2023-05-12T04:35:03.162Z,1016.79
2023-05-12T04:40:04.143Z,1016.78
2023-05-12T04:45:03.151Z,1016.73
2023-05-12T04:50:04.280Z,1016.72
2023-05-12T04:55:03.136Z,1016.64
2023-05-12T05:00:04.216Z,1016.64
2023-05-12T05:05:03.129Z,1016.64
2023-05-12T05:10:04.262Z,1016.61
2023-05-12T05:15:03.086Z,1016.56
2023-05-12T05:20:09.218Z,1016.56
2023-05-12T05:25:03.165Z,1016.53
2023-05-12T05:30:04.255Z,1016.51
2023-05-12T05:35:03.131Z,1016.58
2023-05-12T05:40:04.057Z,1016.86
2023-05-12T05:45:03.230Z,1016.75
2023-05-12T05:50:04.160Z,1016.7
2023-05-12T05:55:03.358Z,1016.65
2023-05-12T06:00:04.174Z,1016.62
2023-05-12T06:05:03.153Z,1016.8
2023-05-12T06:10:04.089Z,1016.97
2023-05-12T06:15:03.161Z,1016.81
2023-05-12T06:20:04.181Z,1016.66
2023-05-12T06:25:03.198Z,1016.65
2023-05-12T06:30:04.144Z,1016.88
2023-05-12T06:35:03.116Z,1016.97
2023-05-12T06:40:04.193Z,1017.02
2023-05-12T06:45:03.300Z,1016.81
2023-05-12T06:50:04.190Z,1016.61
2023-05-12T06:55:03.119Z,1016.61
2023-05-12T07:00:04.103Z,1016.57
2023-05-12T07:05:03.169Z,1016.33
2023-05-12T07:10:03.998Z,1016.49
2023-05-12T07:15:03.248Z,1016.75
2023-05-12T07:20:04.104Z,1016.76
2023-05-12T07:25:03.164Z,1016.78
2023-05-12T07:30:04.141Z,1016.86
2023-05-12T07:35:03.138Z,1016.77
2023-05-12T07:40:04.176Z,1016.64
2023-05-12T07:45:03.214Z,1016.59
2023-05-12T07:50:04.038Z,1016.62
2023-05-12T07:55:03.161Z,1016.62
2023-05-12T08:00:05.190Z,1016.57
2023-05-12T08:05:03.305Z,1016.62
2023-05-12T08:10:04.196Z,1016.74
2023-05-12T08:15:03.191Z,1016.93
2023-05-12T08:20:04.237Z,1017.16
2023-05-12T08:25:03.235Z,1017.35
2023-05-12T08:30:03.920Z,1017.39
2023-05-12T08:35:03.125Z,1017.42
2023-05-12T08:40:04.214Z,1017.41
2023-05-12T08:45:03.202Z,1017.47
2023-05-12T08:50:04.198Z,1017.59
2023-05-12T08:55:03.564Z,1017.61
2023-05-12T09:00:05.183Z,1017.69
2023-05-12T09:05:03.177Z,1017.67
2023-05-12T09:10:04.103Z,1017.87
2023-05-12T09:15:03.160Z,1017.96
2023-05-12T09:20:04.256Z,1017.9
2023-05-12T09:25:03.136Z,1017.86
2023-05-12T09:30:04.243Z,1017.87
2023-05-12T09:35:03.080Z,1017.95
2023-05-12T09:40:04.147Z,1018.01
2023-05-12T09:45:03.152Z,1017.97
2023-05-12T09:50:04.242Z,1017.99
2023-05-12T09:55:03.100Z,1018.12
2023-05-12T10:00:06.056Z,1018.12
2023-05-12T10:05:03.215Z,1018.13
2023-05-12T10:10:04.218Z,1018.22
2023-05-12T10:15:03.131Z,1018.2
2023-05-12T10:20:04.198Z,1018.2
2023-05-12T10:25:03.127Z,1018.25
2023-05-12T10:30:04.113Z,1018.35
2023-05-12T10:35:03.136Z,1018.46
2023-05-12T10:40:04.147Z,1018.54
2023-05-12T10:45:03.155Z,1018.55
2023-05-12T10:50:04.186Z,1018.58
2023-05-12T10:55:03.234Z,1018.52
2023-05-12T11:00:05.000Z,1018.59
2023-05-12T11:05:03.963Z,1018.59
2023-05-12T11:10:05.229Z,1018.66
2023-05-12T11:15:03.554Z,1018.71
2023-05-12T11:20:04.161Z,1018.67
2023-05-12T11:25:03.206Z,1018.66
2023-05-12T11:30:04.237Z,1018.73
2023-05-12T11:35:03.106Z,1018.77
2023-05-12T11:40:04.223Z,1018.73
2023-05-12T11:45:03.147Z,1018.68
2023-05-12T11:50:04.203Z,1018.73
2023-05-12T11:55:03.050Z,1018.77
2023-05-12T12:00:05.122Z,1018.81
2023-05-12T12:05:03.084Z,1018.92
2023-05-12T12:10:04.226Z,1019.11
2023-05-12T12:15:03.205Z,1019.13
2023-05-12T12:20:04.268Z,1019.18
2023-05-12T12:25:03.134Z,1019.25
2023-05-12T12:30:04.228Z,1019.27
2023-05-12T12:35:03.207Z,1019.4
2023-05-12T12:40:04.189Z,1019.43
2023-05-12T12:45:03.228Z,1019.4
2023-05-12T12:50:04.204Z,1019.47
2023-05-12T12:55:03.231Z,1019.43
2023-05-12T13:00:04.286Z,1019.51
2023-05-12T13:05:03.131Z,1019.55
2023-05-12T13:10:04.129Z,1019.58
2023-05-12T13:15:03.329Z,1019.63
2023-05-12T13:20:04.308Z,1019.67
2023-05-12T13:25:04.320Z,1019.7
2023-05-12T13:30:04.293Z,1019.74
2023-05-12T13:35:03.080Z,1019.84
2023-05-12T13:40:04.046Z,1019.78
2023-05-12T13:45:03.359Z,1019.9
2023-05-12T13:50:04.211Z,1019.84
2023-05-12T13:55:03.101Z,1019.85
2023-05-12T14:00:04.146Z,1019.95
2023-05-12T14:05:03.170Z,1019.87
2023-05-12T14:10:04.122Z,1019.82
2023-05-12T14:15:19.604Z,1019.75
2023-05-12T14:20:04.207Z,1019.68
2023-05-12T14:25:03.217Z,1019.63
2023-05-12T14:30:04.134Z,1019.57
2023-05-12T14:35:03.144Z,1019.61
2023-05-12T14:40:04.376Z,1019.62
2023-05-12T14:45:03.287Z,1019.49
2023-05-12T14:50:05.239Z,1019.43
2023-05-12T14:55:03.147Z,1019.33
2023-05-12T15:00:04.343Z,1019.28
2023-05-12T15:05:03.203Z,1019.32
2023-05-12T15:10:04.352Z,1019.16
2023-05-12T15:15:03.295Z,1019.16
2023-05-12T15:20:04.164Z,1018.96
2023-05-12T15:25:03.300Z,1018.93
2023-05-12T15:30:04.105Z,1018.9
2023-05-12T15:35:03.149Z,1018.81
2023-05-12T15:40:04.195Z,1018.68
2023-05-12T15:45:03.191Z,1018.57
2023-05-12T15:50:04.209Z,1018.52
2023-05-12T15:55:03.153Z,1018.41
2023-05-12T16:00:04.337Z,1018.43
2023-05-12T16:05:03.109Z,1018.34
2023-05-12T16:10:04.317Z,1018.2
2023-05-12T16:15:03.075Z,1018.1
2023-05-12T16:20:04.319Z,1018.09
2023-05-12T16:25:03.076Z,1018.08
2023-05-12T16:30:05.285Z,1018.11
2023-05-12T16:35:03.290Z,1018.03
2023-05-12T16:40:04.452Z,1017.91
2023-05-12T16:45:03.171Z,1017.92
2023-05-12T16:50:04.272Z,1018.03
2023-05-12T16:55:03.339Z,1018.08
2023-05-12T17:00:04.285Z,1017.95
2023-05-12T17:05:03.108Z,1017.88
2023-05-12T17:10:04.246Z,1017.75
2023-05-12T17:15:07.276Z,1017.7
2023-05-12T17:20:04.502Z,1017.54
2023-05-12T17:25:03.215Z,1017.47
2023-05-12T17:30:04.220Z,1017.36
2023-05-12T17:35:03.173Z,1017.22
2023-05-12T17:40:04.075Z,1017.15
2023-05-12T17:45:03.144Z,1017.14
2023-05-12T17:50:04.175Z,1017.2
2023-05-12T17:55:03.181Z,1017.23
2023-05-12T18:00:06.389Z,1017.18
2023-05-12T18:05:03.090Z,1016.97
2023-05-12T18:10:04.151Z,1016.85
2023-05-12T18:15:03.180Z,1016.69
2023-05-12T18:20:04.246Z,1016.74
2023-05-12T18:25:03.383Z,1016.74
2023-05-12T18:30:04.312Z,1016.72
2023-05-12T18:35:03.183Z,1016.65
2023-05-12T18:40:04.237Z,1016.6
2023-05-12T18:45:03.130Z,1016.54
2023-05-12T18:50:04.232Z,1016.59
2023-05-12T18:55:03.075Z,1016.64
2023-05-12T19:00:04.252Z,1016.6
2023-05-12T19:05:03.239Z,1016.65
2023-05-12T19:10:04.163Z,1016.65
2023-05-12T19:15:03.053Z,1016.63
2023-05-12T19:20:04.156Z,1016.63
2023-05-12T19:25:03.135Z,1016.52
2023-05-12T19:30:04.295Z,1016.53
2023-05-12T19:35:03.158Z,1016.47
2023-05-12T19:40:04.150Z,1016.5
2023-05-12T19:45:03.102Z,1016.62
2023-05-12T19:50:04.211Z,1016.68
2023-05-12T19:55:03.246Z,1016.65
2023-05-12T20:00:04.377Z,1016.72
2023-05-12T20:05:03.194Z,1016.76
2023-05-12T20:10:04.169Z,1016.97
2023-05-12T20:15:03.230Z,1016.94
2023-05-12T20:20:04.156Z,1017.0
2023-05-12T20:25:06.319Z,1017.16
2023-05-12T20:30:04.199Z,1017.21
2023-05-12T20:35:03.213Z,1017.12
2023-05-12T20:40:04.290Z,1017.15
2023-05-12T20:45:03.140Z,1017.13
2023-05-12T20:50:04.273Z,1017.26
2023-05-12T20:55:03.107Z,1017.4
2023-05-12T21:00:09.244Z,1017.33
2023-05-12T21:05:03.110Z,1017.36
2023-05-12T21:10:04.164Z,1017.34
2023-05-12T21:15:04.179Z,1017.37
2023-05-12T21:20:03.916Z,1017.31
2023-05-12T21:25:03.186Z,1017.36
2023-05-12T21:30:04.130Z,1017.34
2023-05-12T21:35:03.271Z,1017.43
2023-05-12T21:40:09.281Z,1017.38
2023-05-12T21:45:03.055Z,1017.4
2023-05-12T21:50:04.310Z,1017.48
2023-05-12T21:55:03.115Z,1017.59
2023-05-12T22:00:04.296Z,1017.6
2023-05-12T22:05:03.269Z,1017.7
2023-05-12T22:10:04.322Z,1017.79
2023-05-12T22:15:03.113Z,1017.77
2023-05-12T22:20:04.231Z,1017.74
2023-05-12T22:25:03.097Z,1017.69
2023-05-12T22:30:04.291Z,1017.73
2023-05-12T22:35:03.267Z,1017.77
2023-05-12T22:40:04.127Z,1017.84
2023-05-12T22:45:03.162Z,1017.94
2023-05-12T22:50:04.214Z,1018.11
2023-05-12T22:55:03.242Z,1018.13
2023-05-12T23:00:04.288Z,1018.15
2023-05-12T23:05:04.313Z,1018.13
2023-05-12T23:10:04.460Z,1018.19
2023-05-12T23:15:03.182Z,1018.23
2023-05-12T23:20:04.176Z,1018.28
2023-05-12T23:25:03.171Z,1018.3
2023-05-12T23:30:04.485Z,1018.34
2023-05-12T23:35:03.246Z,1018.39
2023-05-12T23:40:04.234Z,1018.43
2023-05-12T23:45:03.074Z,1018.4
2023-05-12T23:50:04.298Z,1018.52
2023-05-12T23:55:03.192Z,1018.55
